Time;durP1;ratioP1;P1;durP2;ratioP2;P2;SDS_P1;SDS_P2;PMS_P1;PMS_P2;Temp;Humidity;BMP_temperature;BMP_pressure;BME280_temperature;BME280_humidity;BME280_pressure;Samples;Min_cycle;Max_cycle;Signal;HPM_P1;HPM_P2
2021/06/01 00:00:29;;;;;;;4.53;4.05;;;;;;;;;;5097975;28;20489;-77
2021/06/01 00:02:55;;;;;;;4.97;4.10;;;;;;;;;;5116553;28;20101;-76
2021/06/01 00:05:21;;;;;;;4.50;4.10;;;;;;;;;;5116021;28;20044;-78
2021/06/01 00:07:47;;;;;;;4.55;3.72;;;;;;;;;;5097840;28;20034;-77
2021/06/01 00:10:14;;;;;;;4.22;3.47;;;;;;;;;;5116126;28;20481;-79
2021/06/01 00:12:40;;;;;;;4.78;4.30;;;;;;;;;;5115977;28;20062;-76
2021/06/01 00:15:06;;;;;;;4.20;3.80;;;;;;;;;;5114879;28;20417;-76
2021/06/01 00:17:32;;;;;;;4.75;3.85;;;;;;;;;;5115739;28;20024;-75
2021/06/01 00:19:59;;;;;;;4.05;3.33;;;;;;;;;;5115960;28;20028;-80
2021/06/01 00:22:25;;;;;;;4.38;3.50;;;;;;;;;;5115776;28;20054;-81
2021/06/01 00:24:51;;;;;;;3.65;3.33;;;;;;;;;;5115527;28;20027;-77
2021/06/01 00:27:17;;;;;;;3.65;3.30;;;;;;;;;;5115670;28;20016;-75
2021/06/01 00:29:43;;;;;;;4.43;3.40;;;;;;;;;;5115694;28;20016;-77
2021/06/01 00:32:09;;;;;;;4.40;3.40;;;;;;;;;;5115439;28;20432;-79
2021/06/01 00:34:35;;;;;;;3.90;3.42;;;;;;;;;;5115302;28;20031;-80
2021/06/01 00:37:01;;;;;;;5.13;3.70;;;;;;;;;;5115493;28;20031;-80
2021/06/01 00:39:27;;;;;;;4.10;3.15;;;;;;;;;;5115279;28;20382;-76
2021/06/01 00:41:53;;;;;;;4.32;3.38;;;;;;;;;;5097033;28;20464;-78
2021/06/01 00:44:20;;;;;;;3.15;2.85;;;;;;;;;;5115215;28;20038;-78
2021/06/01 00:46:46;;;;;;;3.63;3.33;;;;;;;;;;5115125;28;20036;-79
2021/06/01 00:49:12;;;;;;;3.90;3.60;;;;;;;;;;5115191;28;20024;-78
2021/06/01 00:51:38;;;;;;;4.07;3.60;;;;;;;;;;5115250;28;20031;-80
2021/06/01 00:54:04;;;;;;;4.60;3.83;;;;;;;;;;5115026;28;20058;-77
2021/06/01 00:56:32;;;;;;;4.25;3.85;;;;;;;;;;5115162;28;20045;-79
2021/06/01 00:58:58;;;;;;;4.10;3.70;;;;;;;;;;5115044;28;20027;-79
2021/06/01 01:01:24;;;;;;;3.58;3.28;;;;;;;;;;5115263;28;20031;-78
2021/06/01 01:03:52;;;;;;;5.22;3.85;;;;;;;;;;5115097;28;20027;-79
2021/06/01 01:06:19;;;;;;;4.85;3.90;;;;;;;;;;5114790;28;20493;-80
2021/06/01 01:11:14;;;;;;;4.78;4.10;;;;;;;;;;5114844;28;20084;-80
2021/06/01 01:13:44;;;;;;;4.57;4.10;;;;;;;;;;5114788;28;20028;-78
2021/06/01 01:16:12;;;;;;;3.78;3.15;;;;;;;;;;5114615;28;20077;-80
2021/06/01 01:18:39;;;;;;;3.47;3.17;;;;;;;;;;5114678;28;20023;-80
2021/06/01 01:21:05;;;;;;;3.80;3.33;;;;;;;;;;5114456;28;20034;-79
2021/06/01 01:23:32;;;;;;;3.67;3.00;;;;;;;;;;5114794;28;20485;-78
2021/06/01 01:26:03;;;;;;;3.75;3.45;;;;;;;;;;5114326;28;20034;-77
2021/06/01 01:28:47;;;;;;;3.58;2.97;;;;;;;;;;5114449;28;20023;-79
2021/06/01 01:31:13;;;;;;;;;;;;;;;;;;5114878;28;20023;-79
2021/06/01 01:33:41;;;;;;;3.47;2.45;;;;;;;;;;5114352;28;19903;-78
2021/06/01 01:36:09;;;;;;;4.63;3.13;;;;;;;;;;5114158;28;20058;-80
2021/06/01 01:38:36;;;;;;;3.20;2.83;;;;;;;;;;5114399;28;20035;-80
2021/06/01 01:41:04;;;;;;;4.55;2.95;;;;;;;;;;5114397;28;20019;-77
2021/06/01 01:43:33;;;;;;;4.07;3.67;;;;;;;;;;5114266;28;20024;-80
2021/06/01 01:48:58;;;;;;;3.50;3.03;;;;;;;;;;5114246;28;20458;-81
2021/06/01 01:51:25;;;;;;;3.30;3.00;;;;;;;;;;5114002;28;20478;-79
2021/06/01 01:53:58;;;;;;;4.07;3.33;;;;;;;;;;5114067;28;20114;-78
2021/06/01 01:56:28;;;;;;;3.92;3.30;;;;;;;;;;5114066;28;20036;-76
2021/06/01 01:58:55;;;;;;;2.95;2.70;;;;;;;;;;5114006;28;20437;-81
2021/06/01 02:01:21;;;;;;;2.85;2.55;;;;;;;;;;5095891;28;20057;-78
2021/06/01 02:03:47;;;;;;;2.90;2.60;;;;;;;;;;5114213;28;20028;-78
2021/06/01 02:06:13;;;;;;;2.97;2.30;;;;;;;;;;5113823;28;20032;-79
2021/06/01 02:08:40;;;;;;;2.53;2.22;;;;;;;;;;5114018;28;20023;-79
2021/06/01 02:11:07;;;;;;;2.80;2.60;;;;;;;;;;5095345;28;20085;-76
2021/06/01 02:13:41;;;;;;;3.30;2.92;;;;;;;;;;5113889;28;20046;-78
2021/06/01 02:16:07;;;;;;;3.33;2.90;;;;;;;;;;5113747;28;20047;-82
2021/06/01 02:18:33;;;;;;;2.67;2.47;;;;;;;;;;5095518;28;20085;-75
2021/06/01 02:21:00;;;;;;;3.35;3.05;;;;;;;;;;5113705;28;20395;-78
2021/06/01 02:23:48;;;;;;;2.90;2.60;;;;;;;;;;5113668;28;20035;-80
2021/06/01 02:26:29;;;;;;;4.03;3.00;;;;;;;;;;5113671;28;20036;-79
2021/06/01 02:29:01;;;;;;;3.28;2.72;;;;;;;;;;5113690;28;20028;-79
2021/06/01 02:31:29;;;;;;;3.72;3.30;;;;;;;;;;5113936;28;20032;-79
2021/06/01 02:33:56;;;;;;;3.13;2.83;;;;;;;;;;5113663;28;20032;-79
2021/06/01 02:36:23;;;;;;;3.92;3.10;;;;;;;;;;5113375;28;20058;-79
2021/06/01 02:38:49;;;;;;;3.65;3.20;;;;;;;;;;5115844;28;20026;-80
2021/06/01 02:41:16;;;;;;;4.60;2.88;;;;;;;;;;5117628;28;20363;-77
2021/06/01 02:43:42;;;;;;;3.85;2.67;;;;;;;;;;5117615;28;20028;-80
2021/06/01 02:46:09;;;;;;;3.53;3.17;;;;;;;;;;5117468;28;20035;-80
2021/06/01 02:48:35;;;;;;;4.93;3.20;;;;;;;;;;5117667;28;20030;-76
2021/06/01 02:51:14;;;;;;;4.18;3.00;;;;;;;;;;5117450;28;20031;-77
2021/06/01 02:53:42;;;;;;;3.90;2.83;;;;;;;;;;5117317;28;20110;-79
2021/06/01 02:56:08;;;;;;;3.97;2.95;;;;;;;;;;5117594;28;20483;-80
2021/06/01 02:58:34;;;;;;;3.85;2.70;;;;;;;;;;5117540;28;20547;-77
2021/06/01 03:01:04;;;;;;;3.35;3.00;;;;;;;;;;5117331;28;20031;-79
2021/06/01 03:03:30;;;;;;;4.47;3.00;;;;;;;;;;5117428;28;20067;-77
2021/06/01 03:05:56;;;;;;;3.50;3.20;;;;;;;;;;5117306;28;20061;-78
2021/06/01 03:08:28;;;;;;;4.40;3.33;;;;;;;;;;5117241;28;20020;-78
2021/06/01 03:10:55;;;;;;;3.65;2.90;;;;;;;;;;5117223;28;20466;-80
2021/06/01 03:13:21;;;;;;;3.63;3.20;;;;;;;;;;5117330;28;20037;-78
2021/06/01 03:15:47;;;;;;;3.90;3.35;;;;;;;;;;5116986;28;20030;-80
2021/06/01 03:18:13;;;;;;;5.20;3.10;;;;;;;;;;5116824;28;20081;-79
2021/06/01 03:20:40;;;;;;;3.53;3.22;;;;;;;;;;5117016;28;20031;-77
2021/06/01 03:23:06;;;;;;;3.75;3.42;;;;;;;;;;5116908;28;20102;-76
2021/06/01 03:25:32;;;;;;;4.00;3.17;;;;;;;;;;5116872;28;20536;-79
2021/06/01 03:27:59;;;;;;;3.35;3.05;;;;;;;;;;5117091;28;20027;-79
2021/06/01 03:30:25;;;;;;;3.50;3.20;;;;;;;;;;5116779;28;20101;-81
2021/06/01 03:32:51;;;;;;;4.65;3.45;;;;;;;;;;5116692;28;20031;-78
2021/06/01 03:35:17;;;;;;;5.07;3.30;;;;;;;;;;5116341;28;20498;-80
2021/06/01 03:37:43;;;;;;;4.10;3.50;;;;;;;;;;5116639;28;20055;-78
2021/06/01 03:40:10;;;;;;;6.95;4.55;;;;;;;;;;5116687;28;20036;-77
2021/06/01 03:42:36;;;;;;;6.13;3.78;;;;;;;;;;5116551;28;20066;-80
2021/06/01 03:45:02;;;;;;;5.30;4.00;;;;;;;;;;5116271;28;20201;-77
2021/06/01 03:47:28;;;;;;;4.63;3.97;;;;;;;;;;5116584;28;20058;-77
2021/06/01 03:49:55;;;;;;;4.93;3.85;;;;;;;;;;5114925;28;20030;-75
2021/06/01 03:52:21;;;;;;;4.00;3.20;;;;;;;;;;5116406;28;20038;-77
2021/06/01 03:54:47;;;;;;;5.55;4.07;;;;;;;;;;5116343;28;20031;-79
2021/06/01 03:57:13;;;;;;;5.32;4.13;;;;;;;;;;5116421;28;20102;-78
2021/06/01 03:59:39;;;;;;;4.65;3.95;;;;;;;;;;5116172;28;20077;-80
2021/06/01 04:02:06;;;;;;;7.40;4.32;;;;;;;;;;5116277;28;20029;-76
2021/06/01 04:04:33;;;;;;;5.80;4.90;;;;;;;;;;5116199;28;20383;-79
2021/06/01 04:06:59;;;;;;;8.23;4.55;;;;;;;;;;5116252;28;20038;-78
2021/06/01 04:09:25;;;;;;;4.88;3.97;;;;;;;;;;5116022;28;20023;-80
2021/06/01 04:11:51;;;;;;;5.22;4.00;;;;;;;;;;5115954;28;20035;-77
2021/06/01 04:14:19;;;;;;;5.15;4.47;;;;;;;;;;5116046;28;20063;-79
2021/06/01 04:16:45;;;;;;;4.85;3.92;;;;;;;;;;5115609;28;20067;-77
2021/06/01 04:19:11;;;;;;;6.25;4.50;;;;;;;;;;5115434;28;20049;-80
2021/06/01 04:21:37;;;;;;;5.50;4.72;;;;;;;;;;5115907;28;20378;-77
2021/06/01 04:24:04;;;;;;;6.88;3.90;;;;;;;;;;5115680;28;20089;-79
2021/06/01 04:26:30;;;;;;;4.47;3.83;;;;;;;;;;5115593;28;20036;-79
2021/06/01 04:28:57;;;;;;;5.07;4.57;;;;;;;;;;5115569;28;20089;-80
2021/06/01 04:31:23;;;;;;;5.00;4.50;;;;;;;;;;5115592;28;20462;-77
2021/06/01 04:33:50;;;;;;;5.18;4.03;;;;;;;;;;5115611;28;20055;-82
2021/06/01 04:36:16;;;;;;;4.68;3.95;;;;;;;;;;5115301;28;20047;-79
2021/06/01 04:38:42;;;;;;;6.53;4.30;;;;;;;;;;5115368;28;20058;-78
2021/06/01 04:41:08;;;;;;;5.15;4.65;;;;;;;;;;5115595;28;20108;-77
2021/06/01 04:43:34;;;;;;;5.45;4.15;;;;;;;;;;5115352;28;20023;-77
2021/06/01 04:46:01;;;;;;;4.78;4.07;;;;;;;;;;5115080;28;20414;-76
2021/06/01 04:48:27;;;;;;;4.10;3.70;;;;;;;;;;5115468;28;20114;-76
2021/06/01 04:50:53;;;;;;;4.43;3.17;;;;;;;;;;5115132;28;20031;-75
2021/06/01 04:53:19;;;;;;;5.32;3.17;;;;;;;;;;5114562;28;20053;-75
2021/06/01 04:55:45;;;;;;;6.50;5.25;;;;;;;;;;5114875;28;20024;-74
2021/06/01 04:58:12;;;;;;;6.28;4.93;;;;;;;;;;5115044;28;20046;-76
2021/06/01 05:00:38;;;;;;;4.18;3.42;;;;;;;;;;5114275;28;20019;-76
2021/06/01 05:03:04;;;;;;;5.32;3.53;;;;;;;;;;5114984;28;20024;-79
2021/06/01 05:05:30;;;;;;;3.75;3.30;;;;;;;;;;5114282;28;20543;-78
2021/06/01 05:07:56;;;;;;;3.67;3.30;;;;;;;;;;5108874;28;20056;-75
2021/06/01 05:10:22;;;;;;;3.50;3.20;;;;;;;;;;5094035;28;20123;-78
2021/06/01 05:12:48;;;;;;;4.90;3.60;;;;;;;;;;5100341;28;20027;-78
2021/06/01 05:15:15;;;;;;;3.97;3.58;;;;;;;;;;5114404;28;20095;-80
2021/06/01 05:17:41;;;;;;;5.28;3.00;;;;;;;;;;5114543;28;20028;-76
2021/06/01 05:20:07;;;;;;;4.10;3.60;;;;;;;;;;5101584;28;20031;-77
2021/06/01 05:22:34;;;;;;;3.70;3.28;;;;;;;;;;5094159;28;20528;-77
2021/06/01 05:25:00;;;;;;;4.68;3.28;;;;;;;;;;5094077;28;20024;-76
2021/06/01 05:27:26;;;;;;;3.75;3.35;;;;;;;;;;5103659;28;20028;-77
2021/06/01 05:29:57;;;;;;;4.15;3.35;;;;;;;;;;5102685;28;20038;-77
2021/06/01 05:35:28;;;;;;;5.07;2.90;;;;;;;;;;5028429;28;20507;-77
2021/06/01 05:37:54;;;;;;;3.28;2.90;;;;;;;;;;5091618;28;20047;-78
2021/06/01 05:40:20;;;;;;;3.17;2.90;;;;;;;;;;5113117;28;20055;-79
2021/06/01 05:42:47;;;;;;;4.40;3.42;;;;;;;;;;5113167;28;20084;-76
2021/06/01 05:45:13;;;;;;;4.32;3.70;;;;;;;;;;5113100;28;20455;-77
2021/06/01 05:47:39;;;;;;;3.28;2.97;;;;;;;;;;5109078;28;20020;-80
2021/06/01 05:50:06;;;;;;;4.18;2.80;;;;;;;;;;5092359;28;20036;-79
2021/06/01 05:52:35;;;;;;;3.33;3.03;;;;;;;;;;5092368;28;20536;-79
2021/06/01 05:55:02;;;;;;;3.60;3.30;;;;;;;;;;5098704;28;20040;-80
2021/06/01 05:57:28;;;;;;;3.65;3.08;;;;;;;;;;5092111;28;20364;-80
2021/06/01 05:59:54;;;;;;;4.07;3.67;;;;;;;;;;5092377;28;20024;-80
2021/06/01 06:02:20;;;;;;;4.72;2.95;;;;;;;;;;5108147;28;20489;-78
2021/06/01 06:04:46;;;;;;;3.95;3.05;;;;;;;;;;5112537;28;20031;-81
2021/06/01 06:07:13;;;;;;;4.82;3.35;;;;;;;;;;5099289;28;20111;-73
2021/06/01 06:09:39;;;;;;;4.22;3.28;;;;;;;;;;5092270;28;20020;-74
2021/06/01 06:12:05;;;;;;;9.35;8.38;;;;;;;;;;5091588;28;20039;-75
2021/06/01 06:14:31;;;;;;;4.75;4.30;;;;;;;;;;5091644;28;20031;-75
2021/06/01 06:17:01;;;;;;;2.92;2.72;;;;;;;;;;5092385;28;20062;-77
2021/06/01 06:19:27;;;;;;;4.32;3.20;;;;;;;;;;5092279;28;20039;-76
2021/06/01 06:21:55;;;;;;;3.42;3.13;;;;;;;;;;5091917;28;20028;-81
2021/06/01 06:24:21;;;;;;;3.10;2.80;;;;;;;;;;5097494;28;20024;-77
2021/06/01 06:26:47;;;;;;;3.25;2.95;;;;;;;;;;5112290;28;20047;-75
2021/06/01 06:29:13;;;;;;;5.43;4.75;;;;;;;;;;5112605;28;20051;-78
2021/06/01 06:31:39;;;;;;;3.85;3.45;;;;;;;;;;5112141;28;20028;-76
2021/06/01 06:34:06;;;;;;;5.80;3.15;;;;;;;;;;5112414;28;20023;-78
2021/06/01 06:36:32;;;;;;;3.70;2.88;;;;;;;;;;5112123;28;20094;-75
2021/06/01 06:38:58;;;;;;;5.00;3.35;;;;;;;;;;5111761;28;20053;-78
2021/06/01 06:41:24;;;;;;;3.88;2.90;;;;;;;;;;5095051;28;20390;-76
2021/06/01 06:43:53;;;;;;;5.43;3.05;;;;;;;;;;5091266;28;20028;-76
2021/06/01 06:46:29;;;;;;;3.38;2.90;;;;;;;;;;5091767;28;20471;-78
2021/06/01 06:48:55;;;;;;;3.80;3.40;;;;;;;;;;5088135;28;20044;-79
2021/06/01 06:51:22;;;;;;;4.97;4.07;;;;;;;;;;5053717;28;20403;-76
2021/06/01 06:53:53;;;;;;;4.90;3.65;;;;;;;;;;5076185;28;20119;-76
2021/06/01 06:56:20;;;;;;;4.15;3.80;;;;;;;;;;5075968;28;20103;-75
2021/06/01 06:58:47;;;;;;;4.90;4.38;;;;;;;;;;5070791;28;20029;-77
2021/06/01 07:01:13;;;;;;;6.65;4.22;;;;;;;;;;5071925;28;20493;-75
2021/06/01 07:03:39;;;;;;;5.07;4.43;;;;;;;;;;5071744;28;20028;-78
2021/06/01 07:06:06;;;;;;;5.70;5.20;;;;;;;;;;5071291;28;20537;-77
2021/06/01 07:08:33;;;;;;;4.80;4.30;;;;;;;;;;5071346;28;20086;-77
2021/06/01 07:10:59;;;;;;;4.72;4.32;;;;;;;;;;5070839;28;20768;-75
2021/06/01 07:13:44;;;;;;;5.50;5.00;;;;;;;;;;5073166;28;20039;-76
2021/06/01 07:16:10;;;;;;;4.63;4.18;;;;;;;;;;5079901;28;20103;-76
2021/06/01 07:18:39;;;;;;;4.32;3.80;;;;;;;;;;5071308;28;20035;-78
2021/06/01 07:21:06;;;;;;;5.07;4.50;;;;;;;;;;5071406;28;20036;-77
2021/06/01 07:23:32;;;;;;;6.00;5.50;;;;;;;;;;5071523;28;20023;-75
2021/06/01 07:25:59;;;;;;;4.53;4.13;;;;;;;;;;5112053;28;20047;-76
2021/06/01 07:28:25;;;;;;;4.80;4.32;;;;;;;;;;5115793;28;20031;-77
2021/06/01 07:30:52;;;;;;;6.10;5.50;;;;;;;;;;5115346;28;20390;-76
2021/06/01 07:33:18;;;;;;;6.50;3.95;;;;;;;;;;5088839;28;20032;-81
2021/06/01 07:35:44;;;;;;;4.50;4.10;;;;;;;;;;5079636;28;20059;-79
2021/06/01 07:38:12;;;;;;;5.03;3.67;;;;;;;;;;5099695;28;20409;-77
2021/06/01 07:40:39;;;;;;;4.57;4.18;;;;;;;;;;5115636;28;20024;-77
2021/06/01 07:43:05;;;;;;;5.10;4.57;;;;;;;;;;5108921;28;20024;-76
2021/06/01 07:45:32;;;;;;;4.57;3.95;;;;;;;;;;5095090;28;20498;-77
2021/06/01 07:47:58;;;;;;;4.80;4.30;;;;;;;;;;5100070;28;20085;-75
2021/06/01 07:50:25;;;;;;;4.97;4.57;;;;;;;;;;5104831;28;20148;-79
2021/06/01 07:52:51;;;;;;;4.80;4.40;;;;;;;;;;5094688;28;20036;-76
2021/06/01 07:55:17;;;;;;;3.95;3.65;;;;;;;;;;5112405;28;20055;-77
2021/06/01 07:57:43;;;;;;;4.43;3.78;;;;;;;;;;5115215;28;20364;-75
2021/06/01 08:00:10;;;;;;;6.13;4.25;;;;;;;;;;5114986;28;20024;-76
2021/06/01 08:02:36;;;;;;;4.90;4.40;;;;;;;;;;5115097;28;20486;-77
2021/06/01 08:05:03;;;;;;;4.50;4.10;;;;;;;;;;5102995;28;20028;-76
2021/06/01 08:07:29;;;;;;;4.95;4.55;;;;;;;;;;5098509;28;20126;-76
2021/06/01 08:09:55;;;;;;;4.88;4.30;;;;;;;;;;5094699;28;20059;-78
2021/06/01 08:12:21;;;;;;;5.20;4.78;;;;;;;;;;5108731;28;20031;-80
2021/06/01 08:14:49;;;;;;;4.28;3.85;;;;;;;;;;5115011;28;20031;-78
2021/06/01 08:17:15;;;;;;;4.43;3.72;;;;;;;;;;5114830;28;20042;-80
2021/06/01 08:19:44;;;;;;;4.18;3.78;;;;;;;;;;5098803;28;20448;-78
2021/06/01 08:22:31;;;;;;;4.05;3.25;;;;;;;;;;5094170;28;20028;-83
2021/06/01 08:24:57;;;;;;;3.53;3.10;;;;;;;;;;5104587;28;20035;-78
2021/06/01 08:27:24;;;;;;;4.57;3.97;;;;;;;;;;5114408;28;20031;-78
2021/06/01 08:29:50;;;;;;;3.75;3.30;;;;;;;;;;5114838;28;20054;-80
2021/06/01 08:32:16;;;;;;;3.67;3.38;;;;;;;;;;5117369;28;20019;-77
2021/06/01 08:34:43;;;;;;;3.75;3.45;;;;;;;;;;5115983;28;20052;-78
2021/06/01 08:37:10;;;;;;;4.00;3.63;;;;;;;;;;5114089;28;20044;-77
2021/06/01 08:39:36;;;;;;;4.35;3.95;;;;;;;;;;5114001;28;20492;-79
2021/06/01 08:42:02;;;;;;;4.38;4.07;;;;;;;;;;5114139;28;20475;-78
2021/06/01 08:44:28;;;;;;;5.30;4.63;;;;;;;;;;5113844;28;20039;-79
2021/06/01 08:46:56;;;;;;;5.55;5.05;;;;;;;;;;5114515;28;20043;-78
2021/06/01 08:49:22;;;;;;;4.05;3.70;;;;;;;;;;5114152;28;20035;-84
2021/06/01 08:51:49;;;;;;;4.70;4.30;;;;;;;;;;5114334;28;20028;-79
2021/06/01 08:54:15;;;;;;;5.10;3.70;;;;;;;;;;5113777;28;20028;-79
2021/06/01 08:56:42;;;;;;;4.32;3.92;;;;;;;;;;5114061;28;20432;-78
2021/06/01 08:59:09;;;;;;;4.80;4.40;;;;;;;;;;5114081;28;20054;-78
2021/06/01 09:01:35;;;;;;;4.85;4.45;;;;;;;;;;5113540;28;20500;-79
2021/06/01 09:04:07;;;;;;;4.72;4.32;;;;;;;;;;5114056;28;20023;-79
2021/06/01 09:12:30;;;;;;;2.08;1.73;;;;;;;;;;5103233;28;20046;-78
2021/06/01 09:23:00;;;;;;;5.25;4.82;;;;;;;;;;5098432;28;20386;-76
2021/06/01 09:28:07;;;;;;;5.20;4.20;;;;;;;;;;5092909;28;20473;-79
2021/06/01 09:30:36;;;;;;;4.93;4.45;;;;;;;;;;5091992;28;20024;-79
2021/06/01 09:33:03;;;;;;;4.13;3.65;;;;;;;;;;5108253;28;20019;-80
2021/06/01 09:35:48;;;;;;;4.50;4.03;;;;;;;;;;5108192;28;20481;-80
2021/06/01 09:38:15;;;;;;;4.10;3.70;;;;;;;;;;5112883;28;20024;-80
2021/06/01 09:40:41;;;;;;;4.70;3.65;;;;;;;;;;5112715;28;20035;-77
2021/06/01 09:43:15;;;;;;;3.63;2.78;;;;;;;;;;5100099;28;20051;-78
2021/06/01 09:45:45;;;;;;;2.13;1.80;;;;;;;;;;5092553;28;20039;-79
2021/06/01 09:48:12;;;;;;;2.42;2.15;;;;;;;;;;5094197;28;20109;-78
2021/06/01 09:53:22;;;;;;;2.58;1.88;;;;;;;;;;5101063;28;20051;-78
2021/06/01 09:55:48;;;;;;;2.60;2.17;;;;;;;;;;5092614;28;20117;-79
2021/06/01 09:58:16;;;;;;;3.22;2.92;;;;;;;;;;5093880;28;20352;-78
2021/06/01 10:00:44;;;;;;;2.92;2.72;;;;;;;;;;5095523;28;20035;-77
2021/06/01 10:03:20;;;;;;;3.72;2.92;;;;;;;;;;5095332;28;20082;-79
2021/06/01 10:05:48;;;;;;;2.97;2.67;;;;;;;;;;5097009;28;20035;-79
2021/06/01 10:08:24;;;;;;;2.58;2.30;;;;;;;;;;5109622;28;20015;-77
2021/06/01 10:10:53;;;;;;;3.13;2.50;;;;;;;;;;5101415;28;20032;-78
2021/06/01 10:13:20;;;;;;;4.35;2.80;;;;;;;;;;5112714;28;20024;-77
2021/06/01 10:15:46;;;;;;;2.63;2.28;;;;;;;;;;5112586;28;20554;-82
2021/06/01 10:18:18;;;;;;;1.50;1.40;;;;;;;;;;5112981;28;20030;-81
2021/06/01 10:20:45;;;;;;;2.13;1.45;;;;;;;;;;5112091;28;20020;-77
2021/06/01 10:23:13;;;;;;;2.22;1.50;;;;;;;;;;5110930;28;20479;-77
2021/06/01 10:25:39;;;;;;;2.03;1.63;;;;;;;;;;5111812;28;20031;-82
2021/06/01 10:28:09;;;;;;;1.70;1.60;;;;;;;;;;5112411;28;20501;-82
2021/06/01 10:30:36;;;;;;;2.50;2.03;;;;;;;;;;5111314;28;20027;-78
2021/06/01 10:33:08;;;;;;;4.60;2.03;;;;;;;;;;5112059;28;20034;-78
2021/06/01 10:35:37;;;;;;;3.25;2.15;;;;;;;;;;5110632;28;20048;-77
2021/06/01 10:44:23;;;;;;;3.45;1.88;;;;;;;;;;5112469;28;20046;-79
2021/06/01 10:52:28;;;;;;;3.63;2.63;;;;;;;;;;5092482;28;20043;-80
2021/06/01 10:54:55;;;;;;;2.67;2.45;;;;;;;;;;5105603;28;20035;-76
2021/06/01 10:57:21;;;;;;;3.90;2.22;;;;;;;;;;5112360;28;20192;-78
2021/06/01 11:02:33;;;;;;;3.83;2.13;;;;;;;;;;5100210;28;20035;-76
2021/06/01 11:05:07;;;;;;;1.77;1.00;;;;;;;;;;5100639;28;20039;-77
2021/06/01 11:07:54;;;;;;;1.70;1.17;;;;;;;;;;5101672;28;20040;-77
2021/06/01 11:10:39;;;;;;;1.85;1.20;;;;;;;;;;5109061;28;20028;-78
2021/06/01 11:13:06;;;;;;;2.55;1.35;;;;;;;;;;5104360;28;20051;-77
2021/06/01 11:15:33;;;;;;;2.67;1.30;;;;;;;;;;5099704;28;20039;-76
2021/06/01 11:18:18;;;;;;;2.53;1.10;;;;;;;;;;5095685;28;20102;-78
2021/06/01 11:21:05;;;;;;;1.65;1.40;;;;;;;;;;5095516;28;20429;-78
2021/06/01 11:23:41;;;;;;;2.33;1.88;;;;;;;;;;5095210;28;20036;-83
2021/06/01 11:29:05;;;;;;;;;;;;;;;;;;5116237;28;20050;-78
2021/06/01 11:34:16;;;;;;;1.90;1.70;;;;;;;;;;5115170;28;20066;-79
2021/06/01 11:36:42;;;;;;;2.22;1.80;;;;;;;;;;5115108;28;20051;-76
2021/06/01 11:39:33;;;;;;;3.28;2.97;;;;;;;;;;5114787;28;20038;-79
2021/06/01 11:44:44;;;;;;;2.58;2.38;;;;;;;;;;5115989;28;20089;-80
2021/06/01 11:52:23;;;;;;;;;;;;;;;;;;5109986;28;20042;-79
2021/06/01 11:54:50;;;;;;;5.05;3.30;;;;;;;;;;5114403;28;19915;-79
2021/06/01 12:05:30;;;;;;;2.83;2.40;;;;;;;;;;5105494;28;20140;-78
2021/06/01 12:18:39;;;;;;;3.38;2.40;;;;;;;;;;5094479;28;20120;-76
2021/06/01 12:21:06;;;;;;;3.42;2.53;;;;;;;;;;5093993;28;20032;-85
2021/06/01 12:23:39;;;;;;;3.80;3.42;;;;;;;;;;5094467;28;20095;-80
2021/06/01 12:26:12;;;;;;;3.72;2.55;;;;;;;;;;5113310;28;20046;-79
2021/06/01 12:32:01;;;;;;;4.28;2.53;;;;;;;;;;5114228;28;20161;-81
2021/06/01 12:34:33;;;;;;;2.72;2.53;;;;;;;;;;5114272;28;20497;-77
2021/06/01 12:42:19;;;;;;;3.40;3.10;;;;;;;;;;5093844;28;20502;-76
2021/06/01 12:44:47;;;;;;;4.03;2.50;;;;;;;;;;5093946;28;20035;-78
2021/06/01 13:05:17;;;;;;;3.53;2.60;;;;;;;;;;5093451;28;20338;-78
2021/06/01 13:20:51;;;;;;;2.05;1.65;;;;;;;;;;5114070;28;20088;-75
2021/06/01 13:23:49;;;;;;;4.53;2.33;;;;;;;;;;5110592;28;20027;-79
2021/06/01 13:40:13;;;;;;;1.95;1.75;;;;;;;;;;5105708;28;20032;-77
2021/06/01 13:56:15;;;;;;;2.22;1.30;;;;;;;;;;5113338;28;20052;-78
2021/06/01 15:32:29;;;;;;;2.22;1.40;;;;;;;;;;5096113;28;20038;-76
2021/06/01 15:51:41;;;;;;;2.42;1.60;;;;;;;;;;5095844;28;20608;-78
2021/06/01 16:21:38;;;;;;;2.85;2.63;;;;;;;;;;5095161;28;20406;-77
2021/06/01 17:05:24;;;;;;;3.92;2.95;;;;;;;;;;5114921;28;20054;-76
2021/06/01 17:08:02;;;;;;;4.55;3.47;;;;;;;;;;5111329;28;20050;-78
2021/06/01 17:13:16;;;;;;;3.45;3.15;;;;;;;;;;5114217;28;20127;-82
2021/06/01 17:15:43;;;;;;;4.25;3.85;;;;;;;;;;5114006;28;20473;-84
2021/06/01 17:37:02;;;;;;;;;;;;;;;;;;5114233;28;20073;-78
2021/06/01 17:39:28;;;;;;;4.03;3.30;;;;;;;;;;5113368;28;20359;-83
2021/06/01 17:41:56;;;;;;;3.55;3.05;;;;;;;;;;5113886;28;20023;-77
2021/06/01 17:44:24;;;;;;;3.38;3.00;;;;;;;;;;5114185;28;20027;-78
2021/06/01 17:46:51;;;;;;;2.60;2.40;;;;;;;;;;5113666;28;20035;-80
2021/06/01 17:49:28;;;;;;;3.42;3.00;;;;;;;;;;5114152;28;20103;-78
2021/06/01 17:51:55;;;;;;;4.28;3.13;;;;;;;;;;5114122;28;20088;-77
2021/06/01 17:54:25;;;;;;;3.20;2.90;;;;;;;;;;5113837;28;20023;-79
2021/06/01 17:56:51;;;;;;;3.97;3.42;;;;;;;;;;5114236;28;20077;-80
2021/06/01 17:59:18;;;;;;;4.93;3.33;;;;;;;;;;5114168;28;20023;-77
2021/06/01 18:01:45;;;;;;;3.55;2.95;;;;;;;;;;5114173;28;20416;-81
2021/06/01 18:04:14;;;;;;;3.35;2.20;;;;;;;;;;5114188;28;20027;-78
2021/06/01 18:06:50;;;;;;;4.22;2.38;;;;;;;;;;5113898;28;20118;-77
2021/06/01 18:12:01;;;;;;;2.50;2.30;;;;;;;;;;5113907;28;20836;-78
2021/06/01 19:50:41;;;;;;;3.13;2.08;;;;;;;;;;5116739;28;20543;-79
2021/06/01 19:53:09;;;;;;;3.65;2.20;;;;;;;;;;5116391;28;20036;-79
2021/06/01 19:55:35;;;;;;;3.15;2.08;;;;;;;;;;5116521;27;20496;-79
2021/06/01 19:58:01;;;;;;;2.45;2.05;;;;;;;;;;5116395;28;20039;-79
2021/06/01 20:00:28;;;;;;;2.95;2.20;;;;;;;;;;5116472;28;20023;-78
2021/06/01 20:02:56;;;;;;;2.25;1.80;;;;;;;;;;5116382;28;20030;-79
2021/06/01 20:05:23;;;;;;;3.45;2.15;;;;;;;;;;5116314;28;20023;-79
2021/06/01 20:07:49;;;;;;;2.47;2.00;;;;;;;;;;5116191;28;20126;-80
2021/06/01 20:10:16;;;;;;;4.35;2.55;;;;;;;;;;5116283;28;20103;-78
2021/06/01 20:12:42;;;;;;;2.90;2.08;;;;;;;;;;5116038;28;20019;-79
2021/06/01 20:15:10;;;;;;;4.10;2.15;;;;;;;;;;5116001;28;20121;-78
2021/06/01 20:17:40;;;;;;;3.53;2.53;;;;;;;;;;5116310;28;20107;-79
2021/06/01 20:20:07;;;;;;;3.42;2.38;;;;;;;;;;5114812;28;20081;-79
2021/06/01 20:22:36;;;;;;;5.75;2.70;;;;;;;;;;5115953;28;20037;-81
2021/06/01 20:25:04;;;;;;;2.25;2.05;;;;;;;;;;5116025;28;20498;-79
2021/06/01 20:27:30;;;;;;;3.50;2.38;;;;;;;;;;5115953;28;20028;-80
2021/06/01 20:30:01;;;;;;;2.65;2.10;;;;;;;;;;5115974;28;20032;-80
2021/06/01 20:35:14;;;;;;;3.22;2.20;;;;;;;;;;5109593;28;20101;-83
2021/06/01 20:37:41;;;;;;;3.35;2.20;;;;;;;;;;5100025;28;20028;-79
2021/06/01 20:40:08;;;;;;;2.75;2.45;;;;;;;;;;5095685;28;20027;-77
2021/06/01 20:42:34;;;;;;;3.25;2.30;;;;;;;;;;5095201;28;20100;-81
2021/06/01 20:45:01;;;;;;;3.95;2.13;;;;;;;;;;5095452;28;20024;-82
2021/06/01 20:47:27;;;;;;;3.88;2.58;;;;;;;;;;5106527;28;20031;-83
2021/06/01 20:49:53;;;;;;;4.07;3.05;;;;;;;;;;5114610;28;20377;-82
2021/06/01 20:52:22;;;;;;;2.63;2.38;;;;;;;;;;5113033;28;20487;-77
2021/06/01 20:54:48;;;;;;;4.07;2.45;;;;;;;;;;5114473;28;20028;-79
2021/06/01 20:57:15;;;;;;;2.85;2.50;;;;;;;;;;5114226;28;20429;-85
2021/06/01 20:59:41;;;;;;;4.40;2.60;;;;;;;;;;5114178;28;20027;-79
2021/06/01 21:02:11;;;;;;;3.08;2.53;;;;;;;;;;5114035;28;20030;-81
2021/06/01 21:04:37;;;;;;;2.97;2.60;;;;;;;;;;5114074;28;20027;-78
2021/06/01 21:07:04;;;;;;;3.08;2.60;;;;;;;;;;5113827;28;20032;-77
2021/06/01 21:09:30;;;;;;;3.47;2.50;;;;;;;;;;5114139;28;20024;-83
2021/06/01 21:11:56;;;;;;;3.03;2.65;;;;;;;;;;5113736;28;20463;-79
2021/06/01 21:14:23;;;;;;;2.85;2.65;;;;;;;;;;5114094;28;20380;-82
2021/06/01 21:16:50;;;;;;;3.70;3.28;;;;;;;;;;5113827;28;20031;-83
2021/06/01 21:19:16;;;;;;;7.05;5.05;;;;;;;;;;5112525;28;20475;-82
2021/06/01 21:21:43;;;;;;;19.73;16.25;;;;;;;;;;5113922;28;20020;-83
2021/06/01 21:24:09;;;;;;;3.80;3.30;;;;;;;;;;5113079;28;20103;-84
2021/06/01 21:26:36;;;;;;;3.33;3.03;;;;;;;;;;5113692;28;20509;-85
2021/06/01 21:29:02;;;;;;;3.95;2.92;;;;;;;;;;5113619;28;20501;-81
2021/06/01 21:31:33;;;;;;;4.00;2.70;;;;;;;;;;5113707;28;20023;-78
2021/06/01 21:34:04;;;;;;;3.95;3.53;;;;;;;;;;5113198;28;20019;-77
2021/06/01 21:36:31;;;;;;;3.00;2.70;;;;;;;;;;5113240;28;20071;-82
2021/06/01 21:38:57;;;;;;;5.43;2.58;;;;;;;;;;5113376;28;20027;-77
2021/06/01 21:41:23;;;;;;;3.53;2.85;;;;;;;;;;5126497;27;20026;-81
2021/06/01 21:43:50;;;;;;;4.88;3.22;;;;;;;;;;5133701;27;20139;-84
2021/06/01 21:46:17;;;;;;;4.57;2.45;;;;;;;;;;5115557;27;20435;-79
2021/06/01 21:48:47;;;;;;;3.63;3.10;;;;;;;;;;5115349;27;20450;-82
2021/06/01 21:51:14;;;;;;;3.25;2.95;;;;;;;;;;5133910;27;20031;-82
2021/06/01 21:53:41;;;;;;;4.57;2.95;;;;;;;;;;5134124;27;20027;-80
2021/06/01 21:56:09;;;;;;;3.83;3.42;;;;;;;;;;5133618;27;20034;-80
2021/06/01 21:58:37;;;;;;;4.75;3.45;;;;;;;;;;5133730;27;20057;-80
2021/06/01 22:01:04;;;;;;;5.15;3.40;;;;;;;;;;5133522;27;20038;-79
2021/06/01 22:03:31;;;;;;;4.85;3.85;;;;;;;;;;5133733;27;20075;-84
2021/06/01 22:05:57;;;;;;;5.68;3.40;;;;;;;;;;5133442;27;20079;-79
2021/06/01 22:08:24;;;;;;;4.68;3.20;;;;;;;;;;5133676;27;20027;-79
2021/06/01 22:10:51;;;;;;;3.95;3.55;;;;;;;;;;5133411;27;20023;-78